sensor_id;sensor_type;location;lat;lon;timestamp;P1;durP1;ratioP1;P2;durP2;ratioP2
69629;SDS011;56857;52.212;5.496;2023-04-07T00:01:34;23.90;;;10.57;;
69629;SDS011;56857;52.212;5.496;2023-04-07T00:03:59;18.80;;;8.57;;
69629;SDS011;56857;52.212;5.496;2023-04-07T00:06:25;16.00;;;7.47;;
69629;SDS011;56857;52.212;5.496;2023-04-07T00:08:50;14.50;;;6.45;;
69629;SDS011;56857;52.212;5.496;2023-04-07T00:11:15;14.98;;;6.90;;
69629;SDS011;56857;52.212;5.496;2023-04-07T00:13:41;11.97;;;5.50;;
69629;SDS011;56857;52.212;5.496;2023-04-07T00:16:06;13.00;;;5.32;;
69629;SDS011;56857;52.212;5.496;2023-04-07T00:18:32;13.15;;;6.38;;
69629;SDS011;56857;52.212;5.496;2023-04-07T00:20:57;17.60;;;6.05;;
69629;SDS011;56857;52.212;5.496;2023-04-07T00:23:22;14.07;;;6.27;;
69629;SDS011;56857;52.212;5.496;2023-04-07T00:25:48;13.52;;;6.70;;
69629;SDS011;56857;52.212;5.496;2023-04-07T00:28:13;16.45;;;7.00;;
69629;SDS011;56857;52.212;5.496;2023-04-07T00:30:38;15.45;;;8.45;;
69629;SDS011;56857;52.212;5.496;2023-04-07T00:33:03;18.88;;;8.50;;
69629;SDS011;56857;52.212;5.496;2023-04-07T00:35:29;15.57;;;8.55;;
69629;SDS011;56857;52.212;5.496;2023-04-07T00:37:54;13.85;;;8.20;;
69629;SDS011;56857;52.212;5.496;2023-04-07T00:40:19;17.73;;;8.02;;
69629;SDS011;56857;52.212;5.496;2023-04-07T00:42:45;15.55;;;6.20;;
69629;SDS011;56857;52.212;5.496;2023-04-07T00:45:10;15.67;;;5.97;;
69629;SDS011;56857;52.212;5.496;2023-04-07T00:47:35;9.40;;;5.18;;
69629;SDS011;56857;52.212;5.496;2023-04-07T00:50:03;12.20;;;6.28;;
69629;SDS011;56857;52.212;5.496;2023-04-07T00:52:30;11.27;;;5.15;;
69629;SDS011;56857;52.212;5.496;2023-04-07T00:54:58;11.73;;;6.00;;
69629;SDS011;56857;52.212;5.496;2023-04-07T00:57:24;12.88;;;6.40;;
69629;SDS011;56857;52.212;5.496;2023-04-07T00:59:49;11.95;;;6.07;;
69629;SDS011;56857;52.212;5.496;2023-04-07T01:10:16;26.08;;;11.57;;
69629;SDS011;56857;52.212;5.496;2023-04-07T01:13:00;29.40;;;11.98;;
69629;SDS011;56857;52.212;5.496;2023-04-07T01:15:30;23.40;;;11.48;;
69629;SDS011;56857;52.212;5.496;2023-04-07T01:17:59;22.30;;;11.52;;
69629;SDS011;56857;52.212;5.496;2023-04-07T01:20:30;29.30;;;13.07;;
69629;SDS011;56857;52.212;5.496;2023-04-07T01:22:58;26.85;;;12.32;;
69629;SDS011;56857;52.212;5.496;2023-04-07T01:25:52;25.30;;;12.45;;
69629;SDS011;56857;52.212;5.496;2023-04-07T01:31:21;24.63;;;10.02;;
69629;SDS011;56857;52.212;5.496;2023-04-07T01:33:50;23.67;;;10.65;;
69629;SDS011;56857;52.212;5.496;2023-04-07T01:36:17;20.08;;;9.77;;
69629;SDS011;56857;52.212;5.496;2023-04-07T01:38:43;21.70;;;10.10;;
69629;SDS011;56857;52.212;5.496;2023-04-07T01:41:09;24.80;;;11.30;;
69629;SDS011;56857;52.212;5.496;2023-04-07T01:43:36;22.52;;;9.80;;
69629;SDS011;56857;52.212;5.496;2023-04-07T01:46:03;27.45;;;11.20;;
69629;SDS011;56857;52.212;5.496;2023-04-07T01:48:29;25.50;;;11.07;;
69629;SDS011;56857;52.212;5.496;2023-04-07T01:50:55;23.27;;;10.63;;
69629;SDS011;56857;52.212;5.496;2023-04-07T01:53:23;21.08;;;10.82;;
69629;SDS011;56857;52.212;5.496;2023-04-07T01:55:49;19.70;;;9.52;;
69629;SDS011;56857;52.212;5.496;2023-04-07T01:58:17;20.33;;;9.40;;
69629;SDS011;56857;52.212;5.496;2023-04-07T02:00:42;20.95;;;9.43;;
69629;SDS011;56857;52.212;5.496;2023-04-07T02:03:12;20.23;;;10.40;;
69629;SDS011;56857;52.212;5.496;2023-04-07T02:05:42;22.92;;;9.32;;
69629;SDS011;56857;52.212;5.496;2023-04-07T02:08:08;22.95;;;9.65;;
69629;SDS011;56857;52.212;5.496;2023-04-07T02:10:39;16.70;;;9.45;;
69629;SDS011;56857;52.212;5.496;2023-04-07T02:13:06;21.05;;;8.63;;
69629;SDS011;56857;52.212;5.496;2023-04-07T02:15:33;21.13;;;8.52;;
69629;SDS011;56857;52.212;5.496;2023-04-07T02:18:00;15.52;;;7.07;;
69629;SDS011;56857;52.212;5.496;2023-04-07T02:20:27;15.52;;;6.55;;
69629;SDS011;56857;52.212;5.496;2023-04-07T02:22:54;18.70;;;6.78;;
69629;SDS011;56857;52.212;5.496;2023-04-07T02:25:27;15.48;;;6.40;;
69629;SDS011;56857;52.212;5.496;2023-04-07T02:27:54;16.52;;;6.43;;
69629;SDS011;56857;52.212;5.496;2023-04-07T02:30:22;14.38;;;5.55;;
69629;SDS011;56857;52.212;5.496;2023-04-07T02:32:47;19.80;;;6.47;;
69629;SDS011;56857;52.212;5.496;2023-04-07T02:35:13;18.45;;;6.30;;
69629;SDS011;56857;52.212;5.496;2023-04-07T02:37:39;15.93;;;7.05;;
69629;SDS011;56857;52.212;5.496;2023-04-07T02:40:05;19.65;;;6.47;;
69629;SDS011;56857;52.212;5.496;2023-04-07T02:42:30;15.85;;;5.60;;
69629;SDS011;56857;52.212;5.496;2023-04-07T02:44:56;17.95;;;6.82;;
69629;SDS011;56857;52.212;5.496;2023-04-07T02:47:21;18.77;;;7.13;;
69629;SDS011;56857;52.212;5.496;2023-04-07T02:49:47;17.77;;;7.32;;
69629;SDS011;56857;52.212;5.496;2023-04-07T02:52:12;13.45;;;6.43;;
69629;SDS011;56857;52.212;5.496;2023-04-07T02:54:38;17.65;;;5.95;;
69629;SDS011;56857;52.212;5.496;2023-04-07T02:57:03;14.60;;;7.28;;
69629;SDS011;56857;52.212;5.496;2023-04-07T02:59:28;15.95;;;6.38;;
69629;SDS011;56857;52.212;5.496;2023-04-07T03:01:54;17.23;;;6.30;;
69629;SDS011;56857;52.212;5.496;2023-04-07T03:04:20;14.73;;;6.43;;
69629;SDS011;56857;52.212;5.496;2023-04-07T03:06:46;13.43;;;6.45;;
69629;SDS011;56857;52.212;5.496;2023-04-07T03:09:11;16.83;;;6.45;;
69629;SDS011;56857;52.212;5.496;2023-04-07T03:11:36;21.00;;;7.47;;
69629;SDS011;56857;52.212;5.496;2023-04-07T03:14:02;11.60;;;6.43;;
69629;SDS011;56857;52.212;5.496;2023-04-07T03:16:27;11.57;;;5.70;;
69629;SDS011;56857;52.212;5.496;2023-04-07T03:18:52;12.50;;;5.45;;
69629;SDS011;56857;52.212;5.496;2023-04-07T03:21:18;14.13;;;5.40;;
69629;SDS011;56857;52.212;5.496;2023-04-07T03:23:43;14.07;;;5.78;;
69629;SDS011;56857;52.212;5.496;2023-04-07T03:26:08;10.52;;;4.22;;
69629;SDS011;56857;52.212;5.496;2023-04-07T03:28:34;14.60;;;5.40;;
69629;SDS011;56857;52.212;5.496;2023-04-07T03:30:59;15.77;;;4.83;;
69629;SDS011;56857;52.212;5.496;2023-04-07T03:33:24;9.88;;;4.88;;
69629;SDS011;56857;52.212;5.496;2023-04-07T03:35:50;12.38;;;5.22;;
69629;SDS011;56857;52.212;5.496;2023-04-07T03:38:15;11.13;;;4.10;;
69629;SDS011;56857;52.212;5.496;2023-04-07T03:40:40;9.73;;;4.23;;
69629;SDS011;56857;52.212;5.496;2023-04-07T03:43:05;11.85;;;4.30;;
69629;SDS011;56857;52.212;5.496;2023-04-07T03:45:32;12.33;;;4.73;;
69629;SDS011;56857;52.212;5.496;2023-04-07T03:47:57;11.85;;;4.00;;
69629;SDS011;56857;52.212;5.496;2023-04-07T03:50:23;12.60;;;6.20;;
69629;SDS011;56857;52.212;5.496;2023-04-07T03:52:48;11.85;;;4.90;;
69629;SDS011;56857;52.212;5.496;2023-04-07T03:55:13;12.47;;;5.20;;
69629;SDS011;56857;52.212;5.496;2023-04-07T03:57:39;13.77;;;4.95;;
69629;SDS011;56857;52.212;5.496;2023-04-07T04:00:04;15.07;;;4.47;;
69629;SDS011;56857;52.212;5.496;2023-04-07T04:02:30;13.95;;;5.40;;
69629;SDS011;56857;52.212;5.496;2023-04-07T04:04:55;12.60;;;5.13;;
69629;SDS011;56857;52.212;5.496;2023-04-07T04:07:21;13.03;;;4.57;;
69629;SDS011;56857;52.212;5.496;2023-04-07T04:09:46;14.60;;;5.43;;
69629;SDS011;56857;52.212;5.496;2023-04-07T04:12:12;12.27;;;5.95;;
69629;SDS011;56857;52.212;5.496;2023-04-07T04:14:37;13.30;;;5.78;;
69629;SDS011;56857;52.212;5.496;2023-04-07T04:17:02;13.25;;;6.10;;
69629;SDS011;56857;52.212;5.496;2023-04-07T04:19:28;14.10;;;6.72;;
69629;SDS011;56857;52.212;5.496;2023-04-07T04:21:53;18.50;;;7.17;;
69629;SDS011;56857;52.212;5.496;2023-04-07T04:24:18;16.23;;;6.03;;
69629;SDS011;56857;52.212;5.496;2023-04-07T04:26:44;16.13;;;7.63;;
69629;SDS011;56857;52.212;5.496;2023-04-07T04:29:09;16.55;;;7.95;;
69629;SDS011;56857;52.212;5.496;2023-04-07T04:31:34;16.87;;;7.83;;
69629;SDS011;56857;52.212;5.496;2023-04-07T04:33:59;15.57;;;7.22;;
69629;SDS011;56857;52.212;5.496;2023-04-07T04:36:25;14.90;;;6.93;;
69629;SDS011;56857;52.212;5.496;2023-04-07T04:38:50;16.50;;;6.78;;
69629;SDS011;56857;52.212;5.496;2023-04-07T04:41:15;14.23;;;6.88;;
69629;SDS011;56857;52.212;5.496;2023-04-07T04:43:41;15.02;;;6.80;;
69629;SDS011;56857;52.212;5.496;2023-04-07T04:46:06;16.70;;;6.03;;
69629;SDS011;56857;52.212;5.496;2023-04-07T04:48:31;11.52;;;5.47;;
69629;SDS011;56857;52.212;5.496;2023-04-07T04:50:58;12.80;;;5.63;;
69629;SDS011;56857;52.212;5.496;2023-04-07T04:53:27;12.93;;;5.00;;
69629;SDS011;56857;52.212;5.496;2023-04-07T04:55:52;18.38;;;5.40;;
69629;SDS011;56857;52.212;5.496;2023-04-07T04:58:19;13.43;;;4.60;;
69629;SDS011;56857;52.212;5.496;2023-04-07T05:00:44;13.02;;;5.05;;
69629;SDS011;56857;52.212;5.496;2023-04-07T05:03:10;13.93;;;4.45;;
69629;SDS011;56857;52.212;5.496;2023-04-07T05:05:35;15.68;;;4.93;;
69629;SDS011;56857;52.212;5.496;2023-04-07T05:08:00;12.00;;;5.27;;
69629;SDS011;56857;52.212;5.496;2023-04-07T05:10:25;13.00;;;4.32;;
69629;SDS011;56857;52.212;5.496;2023-04-07T05:12:54;10.30;;;3.80;;
69629;SDS011;56857;52.212;5.496;2023-04-07T05:15:19;10.65;;;4.63;;
69629;SDS011;56857;52.212;5.496;2023-04-07T05:17:47;8.80;;;3.60;;
69629;SDS011;56857;52.212;5.496;2023-04-07T05:20:13;14.07;;;4.70;;
69629;SDS011;56857;52.212;5.496;2023-04-07T05:22:38;10.00;;;3.67;;
69629;SDS011;56857;52.212;5.496;2023-04-07T05:25:04;11.32;;;3.80;;
69629;SDS011;56857;52.212;5.496;2023-04-07T05:27:29;12.57;;;3.88;;
69629;SDS011;56857;52.212;5.496;2023-04-07T05:29:55;11.88;;;4.50;;
69629;SDS011;56857;52.212;5.496;2023-04-07T05:32:20;14.17;;;4.27;;
69629;SDS011;56857;52.212;5.496;2023-04-07T05:34:45;10.73;;;4.50;;
69629;SDS011;56857;52.212;5.496;2023-04-07T05:37:11;16.57;;;5.23;;
69629;SDS011;56857;52.212;5.496;2023-04-07T05:39:36;9.38;;;3.80;;
69629;SDS011;56857;52.212;5.496;2023-04-07T05:42:02;12.03;;;4.80;;
69629;SDS011;56857;52.212;5.496;2023-04-07T05:44:28;12.48;;;4.88;;
69629;SDS011;56857;52.212;5.496;2023-04-07T05:46:53;11.25;;;4.63;;
69629;SDS011;56857;52.212;5.496;2023-04-07T05:49:19;10.00;;;3.75;;
69629;SDS011;56857;52.212;5.496;2023-04-07T05:51:44;15.37;;;4.33;;
69629;SDS011;56857;52.212;5.496;2023-04-07T05:54:09;10.45;;;4.18;;
69629;SDS011;56857;52.212;5.496;2023-04-07T05:56:36;14.37;;;5.87;;
69629;SDS011;56857;52.212;5.496;2023-04-07T05:59:01;13.65;;;4.95;;
69629;SDS011;56857;52.212;5.496;2023-04-07T06:01:27;10.53;;;4.57;;
69629;SDS011;56857;52.212;5.496;2023-04-07T06:03:53;11.52;;;4.55;;
69629;SDS011;56857;52.212;5.496;2023-04-07T06:06:19;9.53;;;3.80;;
69629;SDS011;56857;52.212;5.496;2023-04-07T06:08:45;12.07;;;5.13;;
69629;SDS011;56857;52.212;5.496;2023-04-07T06:11:10;10.53;;;4.23;;
69629;SDS011;56857;52.212;5.496;2023-04-07T06:13:44;11.63;;;3.92;;
69629;SDS011;56857;52.212;5.496;2023-04-07T06:16:09;11.63;;;4.22;;
69629;SDS011;56857;52.212;5.496;2023-04-07T06:18:36;11.73;;;4.70;;
69629;SDS011;56857;52.212;5.496;2023-04-07T06:21:01;13.90;;;4.88;;
69629;SDS011;56857;52.212;5.496;2023-04-07T06:23:27;14.55;;;5.47;;
69629;SDS011;56857;52.212;5.496;2023-04-07T06:25:53;11.05;;;4.00;;
69629;SDS011;56857;52.212;5.496;2023-04-07T06:28:20;11.32;;;4.47;;
69629;SDS011;56857;52.212;5.496;2023-04-07T06:30:45;11.82;;;4.25;;
69629;SDS011;56857;52.212;5.496;2023-04-07T06:33:13;12.43;;;4.40;;
69629;SDS011;56857;52.212;5.496;2023-04-07T06:35:39;14.02;;;4.60;;
69629;SDS011;56857;52.212;5.496;2023-04-07T06:38:07;11.32;;;4.68;;
69629;SDS011;56857;52.212;5.496;2023-04-07T06:40:32;12.57;;;4.70;;
69629;SDS011;56857;52.212;5.496;2023-04-07T06:42:58;13.73;;;4.88;;
69629;SDS011;56857;52.212;5.496;2023-04-07T06:45:23;15.32;;;5.10;;
69629;SDS011;56857;52.212;5.496;2023-04-07T06:47:49;11.70;;;4.43;;
69629;SDS011;56857;52.212;5.496;2023-04-07T06:50:14;14.13;;;4.53;;
69629;SDS011;56857;52.212;5.496;2023-04-07T06:52:39;11.95;;;5.15;;
69629;SDS011;56857;52.212;5.496;2023-04-07T06:55:05;10.15;;;4.43;;
69629;SDS011;56857;52.212;5.496;2023-04-07T06:57:44;11.35;;;4.20;;
69629;SDS011;56857;52.212;5.496;2023-04-07T07:00:12;11.75;;;4.55;;
69629;SDS011;56857;52.212;5.496;2023-04-07T07:02:38;13.32;;;5.20;;
69629;SDS011;56857;52.212;5.496;2023-04-07T07:05:03;14.90;;;5.47;;
69629;SDS011;56857;52.212;5.496;2023-04-07T07:07:29;13.77;;;5.25;;
69629;SDS011;56857;52.212;5.496;2023-04-07T07:09:57;13.45;;;5.57;;
69629;SDS011;56857;52.212;5.496;2023-04-07T07:12:22;12.82;;;5.55;;
69629;SDS011;56857;52.212;5.496;2023-04-07T07:14:47;13.23;;;4.55;;
69629;SDS011;56857;52.212;5.496;2023-04-07T07:17:13;11.57;;;4.13;;
69629;SDS011;56857;52.212;5.496;2023-04-07T07:19:38;11.10;;;4.38;;
69629;SDS011;56857;52.212;5.496;2023-04-07T07:22:04;15.07;;;4.78;;
69629;SDS011;56857;52.212;5.496;2023-04-07T07:24:29;12.97;;;4.03;;
69629;SDS011;56857;52.212;5.496;2023-04-07T07:26:55;14.40;;;3.92;;
69629;SDS011;56857;52.212;5.496;2023-04-07T07:29:20;14.75;;;4.88;;
69629;SDS011;56857;52.212;5.496;2023-04-07T07:31:47;11.77;;;3.75;;
69629;SDS011;56857;52.212;5.496;2023-04-07T07:34:12;15.60;;;3.75;;
69629;SDS011;56857;52.212;5.496;2023-04-07T07:36:38;11.18;;;4.40;;
69629;SDS011;56857;52.212;5.496;2023-04-07T07:39:03;13.38;;;3.70;;
69629;SDS011;56857;52.212;5.496;2023-04-07T07:41:28;15.88;;;4.68;;
69629;SDS011;56857;52.212;5.496;2023-04-07T07:43:57;14.93;;;4.03;;
69629;SDS011;56857;52.212;5.496;2023-04-07T07:46:23;12.90;;;3.97;;
69629;SDS011;56857;52.212;5.496;2023-04-07T07:48:50;14.00;;;4.50;;
69629;SDS011;56857;52.212;5.496;2023-04-07T07:51:18;11.82;;;4.05;;
69629;SDS011;56857;52.212;5.496;2023-04-07T07:53:52;14.90;;;4.63;;
69629;SDS011;56857;52.212;5.496;2023-04-07T07:56:18;16.27;;;4.47;;
69629;SDS011;56857;52.212;5.496;2023-04-07T07:58:43;12.13;;;4.20;;
69629;SDS011;56857;52.212;5.496;2023-04-07T08:01:08;10.05;;;3.35;;
69629;SDS011;56857;52.212;5.496;2023-04-07T08:03:34;13.35;;;3.50;;
69629;SDS011;56857;52.212;5.496;2023-04-07T08:06:02;14.95;;;4.10;;
69629;SDS011;56857;52.212;5.496;2023-04-07T08:08:30;13.05;;;4.20;;
69629;SDS011;56857;52.212;5.496;2023-04-07T08:10:55;12.60;;;4.30;;
69629;SDS011;56857;52.212;5.496;2023-04-07T08:13:21;15.23;;;4.10;;
69629;SDS011;56857;52.212;5.496;2023-04-07T08:15:46;13.95;;;4.45;;
69629;SDS011;56857;52.212;5.496;2023-04-07T08:21:30;12.60;;;4.43;;
69629;SDS011;56857;52.212;5.496;2023-04-07T08:23:56;13.93;;;4.13;;
69629;SDS011;56857;52.212;5.496;2023-04-07T08:26:23;16.50;;;4.05;;
69629;SDS011;56857;52.212;5.496;2023-04-07T08:28:48;10.43;;;4.03;;
69629;SDS011;56857;52.212;5.496;2023-04-07T08:31:14;15.88;;;4.15;;
69629;SDS011;56857;52.212;5.496;2023-04-07T08:33:39;10.93;;;4.05;;
69629;SDS011;56857;52.212;5.496;2023-04-07T08:42:13;10.30;;;4.30;;
69629;SDS011;56857;52.212;5.496;2023-04-07T08:47:31;10.48;;;3.45;;
69629;SDS011;56857;52.212;5.496;2023-04-07T08:52:33;12.80;;;3.40;;
69629;SDS011;56857;52.212;5.496;2023-04-07T08:55:12;13.32;;;3.80;;
69629;SDS011;56857;52.212;5.496;2023-04-07T08:57:46;12.60;;;4.13;;
69629;SDS011;56857;52.212;5.496;2023-04-07T09:00:18;9.43;;;3.17;;
69629;SDS011;56857;52.212;5.496;2023-04-07T09:05:47;9.85;;;3.70;;
69629;SDS011;56857;52.212;5.496;2023-04-07T09:08:25;9.32;;;3.63;;
69629;SDS011;56857;52.212;5.496;2023-04-07T09:11:30;14.27;;;3.70;;
69629;SDS011;56857;52.212;5.496;2023-04-07T09:14:17;12.10;;;3.70;;
69629;SDS011;56857;52.212;5.496;2023-04-07T09:16:42;12.20;;;4.18;;
69629;SDS011;56857;52.212;5.496;2023-04-07T09:21:49;8.27;;;3.67;;
69629;SDS011;56857;52.212;5.496;2023-04-07T09:24:38;11.35;;;3.50;;
69629;SDS011;56857;52.212;5.496;2023-04-07T09:27:14;8.70;;;4.20;;
69629;SDS011;56857;52.212;5.496;2023-04-07T09:29:48;12.55;;;3.40;;
69629;SDS011;56857;52.212;5.496;2023-04-07T09:35:01;9.93;;;3.60;;
69629;SDS011;56857;52.212;5.496;2023-04-07T09:37:27;10.25;;;3.60;;
69629;SDS011;56857;52.212;5.496;2023-04-07T09:39:52;14.15;;;4.40;;
69629;SDS011;56857;52.212;5.496;2023-04-07T09:42:18;11.50;;;3.40;;
69629;SDS011;56857;52.212;5.496;2023-04-07T09:44:44;11.45;;;4.90;;
69629;SDS011;56857;52.212;5.496;2023-04-07T09:47:12;11.77;;;4.28;;
69629;SDS011;56857;52.212;5.496;2023-04-07T09:49:47;9.55;;;4.72;;
69629;SDS011;56857;52.212;5.496;2023-04-07T09:52:17;12.80;;;4.80;;
69629;SDS011;56857;52.212;5.496;2023-04-07T09:54:44;12.70;;;5.72;;
69629;SDS011;56857;52.212;5.496;2023-04-07T09:57:10;12.85;;;3.70;;
69629;SDS011;56857;52.212;5.496;2023-04-07T09:59:37;10.57;;;3.97;;
69629;SDS011;56857;52.212;5.496;2023-04-07T10:02:05;10.05;;;4.45;;
69629;SDS011;56857;52.212;5.496;2023-04-07T10:04:30;9.57;;;4.15;;
69629;SDS011;56857;52.212;5.496;2023-04-07T10:06:56;12.43;;;4.28;;
69629;SDS011;56857;52.212;5.496;2023-04-07T10:09:23;10.18;;;3.65;;
69629;SDS011;56857;52.212;5.496;2023-04-07T10:11:50;11.70;;;3.83;;
69629;SDS011;56857;52.212;5.496;2023-04-07T10:14:19;10.77;;;3.10;;
69629;SDS011;56857;52.212;5.496;2023-04-07T10:16:46;10.75;;;3.40;;
69629;SDS011;56857;52.212;5.496;2023-04-07T10:19:12;11.15;;;4.38;;
69629;SDS011;56857;52.212;5.496;2023-04-07T10:21:39;9.23;;;3.80;;
69629;SDS011;56857;52.212;5.496;2023-04-07T10:26:39;9.60;;;3.83;;
69629;SDS011;56857;52.212;5.496;2023-04-07T10:29:07;14.60;;;3.92;;
69629;SDS011;56857;52.212;5.496;2023-04-07T10:31:36;8.55;;;3.40;;
69629;SDS011;56857;52.212;5.496;2023-04-07T10:34:02;7.55;;;2.92;;
69629;SDS011;56857;52.212;5.496;2023-04-07T10:36:27;8.07;;;3.42;;
69629;SDS011;56857;52.212;5.496;2023-04-07T10:41:34;9.30;;;3.30;;
69629;SDS011;56857;52.212;5.496;2023-04-07T10:44:04;9.52;;;4.63;;
69629;SDS011;56857;52.212;5.496;2023-04-07T10:49:11;10.32;;;3.42;;
69629;SDS011;56857;52.212;5.496;2023-04-07T10:51:37;6.03;;;3.35;;
69629;SDS011;56857;52.212;5.496;2023-04-07T10:59:30;9.75;;;3.13;;
69629;SDS011;56857;52.212;5.496;2023-04-07T11:04:36;12.02;;;4.30;;
69629;SDS011;56857;52.212;5.496;2023-04-07T11:07:02;9.98;;;3.92;;
69629;SDS011;56857;52.212;5.496;2023-04-07T11:09:28;9.47;;;3.73;;
69629;SDS011;56857;52.212;5.496;2023-04-07T11:11:53;10.70;;;4.10;;
69629;SDS011;56857;52.212;5.496;2023-04-07T11:14:51;8.63;;;3.03;;
69629;SDS011;56857;52.212;5.496;2023-04-07T11:17:13;8.82;;;3.75;;
69629;SDS011;56857;52.212;5.496;2023-04-07T11:19:52;10.45;;;4.57;;
69629;SDS011;56857;52.212;5.496;2023-04-07T11:22:17;13.80;;;3.83;;
69629;SDS011;56857;52.212;5.496;2023-04-07T11:24:44;8.38;;;2.95;;
69629;SDS011;56857;52.212;5.496;2023-04-07T11:27:13;8.75;;;2.80;;
69629;SDS011;56857;52.212;5.496;2023-04-07T11:29:39;8.25;;;3.33;;
69629;SDS011;56857;52.212;5.496;2023-04-07T11:32:05;11.98;;;3.00;;
69629;SDS011;56857;52.212;5.496;2023-04-07T11:34:31;8.35;;;3.15;;
69629;SDS011;56857;52.212;5.496;2023-04-07T11:36:58;6.57;;;2.90;;
69629;SDS011;56857;52.212;5.496;2023-04-07T11:39:43;11.32;;;3.10;;
69629;SDS011;56857;52.212;5.496;2023-04-07T11:42:08;9.23;;;2.70;;
69629;SDS011;56857;52.212;5.496;2023-04-07T11:44:34;8.35;;;2.90;;
69629;SDS011;56857;52.212;5.496;2023-04-07T11:47:10;11.25;;;3.85;;
69629;SDS011;56857;52.212;5.496;2023-04-07T11:49:35;13.98;;;4.03;;
69629;SDS011;56857;52.212;5.496;2023-04-07T11:52:18;10.07;;;3.72;;
69629;SDS011;56857;52.212;5.496;2023-04-07T11:54:47;9.65;;;3.88;;
69629;SDS011;56857;52.212;5.496;2023-04-07T11:57:12;9.63;;;2.80;;
69629;SDS011;56857;52.212;5.496;2023-04-07T11:59:39;5.97;;;2.83;;
69629;SDS011;56857;52.212;5.496;2023-04-07T12:02:05;8.60;;;2.60;;
69629;SDS011;56857;52.212;5.496;2023-04-07T12:04:30;8.82;;;2.40;;
69629;SDS011;56857;52.212;5.496;2023-04-07T12:07:05;6.20;;;2.75;;
69629;SDS011;56857;52.212;5.496;2023-04-07T12:09:33;9.20;;;2.80;;
69629;SDS011;56857;52.212;5.496;2023-04-07T12:11:59;8.45;;;2.50;;
69629;SDS011;56857;52.212;5.496;2023-04-07T12:14:25;12.68;;;3.30;;
69629;SDS011;56857;52.212;5.496;2023-04-07T12:16:51;9.13;;;2.80;;
69629;SDS011;56857;52.212;5.496;2023-04-07T12:19:17;8.82;;;2.90;;
69629;SDS011;56857;52.212;5.496;2023-04-07T12:21:42;9.45;;;2.80;;
69629;SDS011;56857;52.212;5.496;2023-04-07T12:24:08;7.45;;;2.72;;
69629;SDS011;56857;52.212;5.496;2023-04-07T12:26:34;9.85;;;3.22;;
69629;SDS011;56857;52.212;5.496;2023-04-07T12:28:59;13.95;;;3.08;;
69629;SDS011;56857;52.212;5.496;2023-04-07T12:31:24;9.38;;;3.10;;
69629;SDS011;56857;52.212;5.496;2023-04-07T12:33:50;7.47;;;3.35;;
69629;SDS011;56857;52.212;5.496;2023-04-07T12:36:15;7.60;;;3.50;;
69629;SDS011;56857;52.212;5.496;2023-04-07T12:38:40;7.22;;;2.85;;
69629;SDS011;56857;52.212;5.496;2023-04-07T12:41:06;6.30;;;2.63;;
69629;SDS011;56857;52.212;5.496;2023-04-07T12:43:31;10.00;;;2.65;;
69629;SDS011;56857;52.212;5.496;2023-04-07T12:45:56;6.88;;;2.50;;
69629;SDS011;56857;52.212;5.496;2023-04-07T12:48:22;9.15;;;2.33;;
69629;SDS011;56857;52.212;5.496;2023-04-07T12:50:48;6.72;;;3.30;;
69629;SDS011;56857;52.212;5.496;2023-04-07T12:53:13;16.90;;;5.45;;
69629;SDS011;56857;52.212;5.496;2023-04-07T12:55:40;11.65;;;3.15;;
69629;SDS011;56857;52.212;5.496;2023-04-07T12:58:06;9.73;;;3.28;;
69629;SDS011;56857;52.212;5.496;2023-04-07T13:00:32;7.95;;;2.80;;
69629;SDS011;56857;52.212;5.496;2023-04-07T13:02:57;7.85;;;2.53;;
69629;SDS011;56857;52.212;5.496;2023-04-07T13:05:22;7.05;;;2.80;;
69629;SDS011;56857;52.212;5.496;2023-04-07T13:07:48;6.32;;;2.78;;
69629;SDS011;56857;52.212;5.496;2023-04-07T13:10:13;11.50;;;4.00;;
69629;SDS011;56857;52.212;5.496;2023-04-07T13:12:38;7.63;;;2.83;;
69629;SDS011;56857;52.212;5.496;2023-04-07T13:15:04;7.28;;;2.90;;
69629;SDS011;56857;52.212;5.496;2023-04-07T13:17:30;6.68;;;2.80;;
69629;SDS011;56857;52.212;5.496;2023-04-07T13:19:55;6.45;;;2.63;;
69629;SDS011;56857;52.212;5.496;2023-04-07T13:22:21;6.95;;;2.50;;
69629;SDS011;56857;52.212;5.496;2023-04-07T13:24:47;7.35;;;3.17;;
69629;SDS011;56857;52.212;5.496;2023-04-07T13:27:12;7.80;;;2.85;;
69629;SDS011;56857;52.212;5.496;2023-04-07T13:29:38;7.18;;;3.15;;
69629;SDS011;56857;52.212;5.496;2023-04-07T13:32:04;7.45;;;3.00;;
69629;SDS011;56857;52.212;5.496;2023-04-07T13:34:33;7.50;;;3.60;;
69629;SDS011;56857;52.212;5.496;2023-04-07T13:37:00;9.70;;;3.80;;
69629;SDS011;56857;52.212;5.496;2023-04-07T13:39:26;8.23;;;3.45;;
69629;SDS011;56857;52.212;5.496;2023-04-07T13:41:51;8.40;;;3.95;;
69629;SDS011;56857;52.212;5.496;2023-04-07T13:44:16;6.32;;;2.88;;
69629;SDS011;56857;52.212;5.496;2023-04-07T13:46:42;8.40;;;3.67;;
69629;SDS011;56857;52.212;5.496;2023-04-07T13:49:07;9.88;;;3.15;;
69629;SDS011;56857;52.212;5.496;2023-04-07T13:51:32;5.80;;;3.10;;
69629;SDS011;56857;52.212;5.496;2023-04-07T13:53:58;9.60;;;3.58;;
69629;SDS011;56857;52.212;5.496;2023-04-07T13:56:23;8.43;;;2.97;;
69629;SDS011;56857;52.212;5.496;2023-04-07T13:58:48;10.50;;;3.72;;
69629;SDS011;56857;52.212;5.496;2023-04-07T14:01:14;9.52;;;3.35;;
69629;SDS011;56857;52.212;5.496;2023-04-07T14:03:39;9.48;;;4.20;;
69629;SDS011;56857;52.212;5.496;2023-04-07T14:06:04;6.88;;;3.10;;
69629;SDS011;56857;52.212;5.496;2023-04-07T14:08:30;10.65;;;3.65;;
69629;SDS011;56857;52.212;5.496;2023-04-07T14:10:55;11.50;;;4.15;;
69629;SDS011;56857;52.212;5.496;2023-04-07T14:13:21;8.15;;;5.22;;
69629;SDS011;56857;52.212;5.496;2023-04-07T14:15:46;8.30;;;3.88;;
69629;SDS011;56857;52.212;5.496;2023-04-07T14:18:12;8.23;;;3.50;;
69629;SDS011;56857;52.212;5.496;2023-04-07T14:20:37;10.20;;;3.53;;
69629;SDS011;56857;52.212;5.496;2023-04-07T14:23:02;6.68;;;2.63;;
69629;SDS011;56857;52.212;5.496;2023-04-07T14:25:27;11.10;;;4.00;;
69629;SDS011;56857;52.212;5.496;2023-04-07T14:27:53;10.63;;;4.35;;
69629;SDS011;56857;52.212;5.496;2023-04-07T14:30:18;8.77;;;3.08;;
69629;SDS011;56857;52.212;5.496;2023-04-07T14:32:44;9.10;;;3.53;;
69629;SDS011;56857;52.212;5.496;2023-04-07T14:35:09;11.45;;;5.18;;
69629;SDS011;56857;52.212;5.496;2023-04-07T14:37:35;11.20;;;4.55;;
69629;SDS011;56857;52.212;5.496;2023-04-07T14:40:03;9.73;;;4.78;;
69629;SDS011;56857;52.212;5.496;2023-04-07T14:42:29;12.18;;;5.32;;
69629;SDS011;56857;52.212;5.496;2023-04-07T14:44:55;10.73;;;4.60;;
69629;SDS011;56857;52.212;5.496;2023-04-07T14:47:21;9.93;;;4.88;;
69629;SDS011;56857;52.212;5.496;2023-04-07T14:49:47;10.57;;;4.88;;
69629;SDS011;56857;52.212;5.496;2023-04-07T14:52:12;12.30;;;5.43;;
69629;SDS011;56857;52.212;5.496;2023-04-07T14:54:37;9.85;;;5.35;;
69629;SDS011;56857;52.212;5.496;2023-04-07T14:57:02;13.25;;;5.22;;
69629;SDS011;56857;52.212;5.496;2023-04-07T14:59:28;12.88;;;5.10;;
69629;SDS011;56857;52.212;5.496;2023-04-07T15:01:53;10.65;;;5.28;;
69629;SDS011;56857;52.212;5.496;2023-04-07T15:04:19;11.50;;;5.65;;
69629;SDS011;56857;52.212;5.496;2023-04-07T15:06:44;13.98;;;6.63;;
69629;SDS011;56857;52.212;5.496;2023-04-07T15:09:09;12.32;;;5.53;;
69629;SDS011;56857;52.212;5.496;2023-04-07T15:11:35;15.68;;;6.63;;
69629;SDS011;56857;52.212;5.496;2023-04-07T15:14:00;12.68;;;6.28;;
69629;SDS011;56857;52.212;5.496;2023-04-07T15:16:25;14.73;;;6.85;;
69629;SDS011;56857;52.212;5.496;2023-04-07T15:18:51;15.50;;;6.55;;
69629;SDS011;56857;52.212;5.496;2023-04-07T15:21:17;14.32;;;6.90;;
69629;SDS011;56857;52.212;5.496;2023-04-07T15:23:45;14.80;;;6.53;;
69629;SDS011;56857;52.212;5.496;2023-04-07T15:26:10;15.80;;;6.72;;